Time;durP1;ratioP1;P1;durP2;ratioP2;P2;SDS_P1;SDS_P2;PMS_P1;PMS_P2;Temp;Humidity;BMP_temperature;BMP_pressure;BME280_temperature;BME280_humidity;BME280_pressure;Samples;Min_cycle;Max_cycle;Signal;HPM_P1;HPM_P2
2021/03/03 00:01:16;;;;;;;1999.90;999.90;;;;;;;6.09;75.98;99753.88;5000478;28;20046;-65
2021/03/03 00:03:43;;;;;;;1999.90;999.90;;;;;;;5.86;76.25;99749.53;5003986;28;20050;-65
2021/03/03 00:06:09;;;;;;;1999.90;999.90;;;;;;;5.55;77.45;99749.25;4996387;28;20104;-65
2021/03/03 00:08:35;;;;;;;1999.90;999.90;;;;;;;5.50;77.47;99746.44;5002404;28;20096;-65
2021/03/03 00:11:01;;;;;;;1999.90;999.90;;;;;;;5.33;77.69;99748.44;5000795;28;20054;-65
2021/03/03 00:13:27;;;;;;;1999.90;999.90;;;;;;;5.37;77.61;99750.41;5003928;28;20547;-65
2021/03/03 00:15:53;;;;;;;1999.90;999.90;;;;;;;5.36;77.23;99742.41;5004757;28;20401;-65
2021/03/03 00:18:19;;;;;;;1999.90;999.90;;;;;;;5.40;76.90;99735.34;5004776;28;20049;-65
2021/03/03 00:20:45;;;;;;;1999.90;999.90;;;;;;;5.24;77.71;99737.94;5001551;28;20077;-65
2021/03/03 00:23:11;;;;;;;1999.90;999.90;;;;;;;5.34;77.62;99737.19;5004241;28;20112;-65
2021/03/03 00:25:37;;;;;;;1999.90;999.90;;;;;;;5.43;77.35;99737.56;5000222;28;20517;-65
2021/03/03 00:28:04;;;;;;;1999.90;999.90;;;;;;;5.65;76.18;99737.53;5003532;28;20394;-65
2021/03/03 00:30:30;;;;;;;1999.90;999.90;;;;;;;5.69;75.86;99735.09;5004112;28;20054;-65
2021/03/03 00:32:56;;;;;;;1999.90;999.90;;;;;;;5.69;76.22;99735.09;5001463;28;20046;-65
2021/03/03 00:35:22;;;;;;;1999.90;999.90;;;;;;;5.71;75.30;99735.66;4998915;28;20480;-65
2021/03/03 00:37:48;;;;;;;1999.90;999.90;;;;;;;5.48;76.47;99732.16;4997509;28;20061;-65
2021/03/03 00:40:14;;;;;;;1999.90;999.90;;;;;;;5.52;76.52;99729.69;5004109;28;20045;-65
2021/03/03 00:42:41;;;;;;;1999.90;999.90;;;;;;;5.62;76.09;99732.56;5003217;28;20046;-65
2021/03/03 00:45:08;;;;;;;1999.90;999.90;;;;;;;5.51;76.37;99725.28;5002436;28;20046;-65
2021/03/03 00:47:34;;;;;;;1999.90;999.90;;;;;;;5.33;76.76;99721.84;5001494;28;20049;-65
2021/03/03 00:50:05;;;;;;;1999.90;999.90;;;;;;;5.44;76.90;99722.78;5001590;28;20075;-65
2021/03/03 00:52:31;;;;;;;1999.90;999.90;;;;;;;5.48;76.34;99721.19;4985826;28;20080;-65
2021/03/03 00:54:57;;;;;;;1999.90;999.90;;;;;;;5.32;76.46;99716.63;5005052;28;20420;-65
2021/03/03 00:57:23;;;;;;;1999.90;999.90;;;;;;;5.48;76.38;99715.69;4998726;28;20123;-65
2021/03/03 00:59:49;;;;;;;1999.90;999.90;;;;;;;5.23;76.80;99708.81;5001317;28;20109;-65
2021/03/03 01:02:17;;;;;;;1999.90;999.90;;;;;;;5.29;76.82;99713.28;5000032;28;20505;-65
2021/03/03 01:04:44;;;;;;;1999.90;999.90;;;;;;;5.32;77.04;99713.88;4999073;28;20348;-65
2021/03/03 01:07:11;;;;;;;1999.90;999.90;;;;;;;5.58;75.98;99713.06;5000939;28;20054;-65
2021/03/03 01:09:38;;;;;;;1999.90;999.90;;;;;;;5.56;75.86;99712.47;4981792;28;20053;-65
2021/03/03 01:12:04;;;;;;;1999.90;999.90;;;;;;;5.31;76.88;99706.72;5001765;28;20076;-65
2021/03/03 01:14:30;;;;;;;1999.90;999.90;;;;;;;5.36;77.02;99706.75;5003987;28;20107;-65
2021/03/03 01:16:57;;;;;;;1999.90;999.90;;;;;;;5.43;76.27;99701.91;4996777;28;20054;-65
2021/03/03 01:19:23;;;;;;;1999.90;999.90;;;;;;;5.56;75.86;99701.47;5005315;28;20053;-65
2021/03/03 01:21:49;;;;;;;1999.90;999.90;;;;;;;5.47;76.05;99694.81;4996754;28;20050;-65
2021/03/03 01:24:15;;;;;;;1999.90;999.90;;;;;;;5.39;76.22;99700.75;5004669;28;20049;-65
2021/03/03 01:26:41;;;;;;;1999.90;999.90;;;;;;;5.24;76.46;99699.53;5000117;28;20050;-65
2021/03/03 01:29:08;;;;;;;1999.90;999.90;;;;;;;5.36;76.20;99702.13;5000799;28;20108;-65
2021/03/03 01:31:34;;;;;;;1999.90;999.90;;;;;;;5.45;75.98;99697.00;5004013;28;20101;-65
2021/03/03 01:34:00;;;;;;;1999.90;999.90;;;;;;;5.27;75.99;99693.53;4997597;28;20053;-65
2021/03/03 01:36:27;;;;;;;1999.90;999.90;;;;;;;5.08;76.11;99692.22;5005295;28;20855;-65
2021/03/03 01:38:53;;;;;;;1999.90;999.90;;;;;;;4.84;77.19;99694.38;5002337;28;20105;-66
2021/03/03 01:41:19;;;;;;;1999.90;999.90;;;;;;;4.99;76.92;99694.56;5004289;28;20449;-66
2021/03/03 01:43:47;;;;;;;1999.90;999.90;;;;;;;4.90;77.11;99696.94;4999143;28;20054;-66
2021/03/03 01:46:13;;;;;;;1999.90;999.90;;;;;;;4.53;78.59;99683.03;5005011;28;20064;-66
2021/03/03 01:48:39;;;;;;;1999.90;999.90;;;;;;;4.67;77.45;99681.56;5005198;28;20061;-66
2021/03/03 01:51:07;;;;;;;1999.90;999.90;;;;;;;5.00;76.36;99674.31;5006100;28;20042;-66
2021/03/03 01:53:33;;;;;;;1999.90;999.90;;;;;;;5.02;76.05;99668.56;5003451;28;20053;-66
2021/03/03 01:55:59;;;;;;;1999.90;999.90;;;;;;;4.99;76.81;99669.91;5006414;28;20489;-66
2021/03/03 01:58:26;;;;;;;1999.90;999.90;;;;;;;5.05;76.36;99666.13;5006018;28;20092;-66
2021/03/03 02:00:58;;;;;;;1999.90;999.90;;;;;;;5.06;76.49;99665.06;5006425;28;20046;-66
2021/03/03 02:03:24;;;;;;;1999.90;999.90;;;;;;;5.25;76.30;99671.00;5007865;28;20050;-66
2021/03/03 02:05:54;;;;;;;1999.90;999.90;;;;;;;5.37;75.72;99667.28;4997643;28;20486;-66
2021/03/03 02:08:24;;;;;;;1999.90;999.90;;;;;;;5.21;75.71;99663.53;5006679;28;20057;-66
2021/03/03 02:10:59;;;;;;;1999.90;999.90;;;;;;;5.17;75.85;99657.75;5000066;28;20104;-66
2021/03/03 02:13:32;;;;;;;1999.90;999.90;;;;;;;5.32;75.55;99650.78;5002313;28;20128;-66
2021/03/03 02:16:02;;;;;;;1999.90;999.90;;;;;;;5.40;75.42;99653.84;5005643;28;20115;-66
2021/03/03 02:18:33;;;;;;;1999.90;999.90;;;;;;;5.35;75.59;99656.56;5023031;28;20042;-66
2021/03/03 02:21:09;;;;;;;1999.90;999.90;;;;;;;5.40;75.24;99653.03;5003302;28;20046;-66
2021/03/03 02:23:52;;;;;;;1999.90;999.90;;;;;;;5.25;75.32;99651.78;5001694;28;20061;-66
2021/03/03 02:26:20;;;;;;;1999.90;999.90;;;;;;;5.05;76.01;99646.13;5002676;28;20050;-66
2021/03/03 02:28:48;;;;;;;1999.90;999.90;;;;;;;5.03;76.27;99643.63;5007518;28;20049;-66
2021/03/03 02:31:33;;;;;;;1999.90;999.90;;;;;;;5.01;76.47;99645.78;5008110;28;20050;-66
2021/03/03 02:34:02;;;;;;;1999.90;999.90;;;;;;;5.11;76.38;99645.09;5006765;28;20490;-66
2021/03/03 02:36:28;;;;;;;1999.90;999.90;;;;;;;4.95;76.71;99635.84;5002859;28;20050;-66
2021/03/03 02:38:56;;;;;;;1999.90;999.90;;;;;;;5.19;75.69;99638.31;5006273;28;20041;-66
2021/03/03 02:41:24;;;;;;;1999.90;999.90;;;;;;;4.94;76.46;99642.41;5007644;28;20046;-66
2021/03/03 02:43:50;;;;;;;1999.90;999.90;;;;;;;4.83;77.00;99643.41;5002532;28;20076;-66
2021/03/03 02:46:17;;;;;;;1999.90;999.90;;;;;;;4.84;76.91;99640.41;5003019;28;20089;-66
2021/03/03 02:48:47;;;;;;;1999.90;999.90;;;;;;;4.73;77.53;99638.59;5008148;28;20049;-66
2021/03/03 02:51:13;;;;;;;1999.90;999.90;;;;;;;4.61;77.82;99636.00;5003474;28;20527;-66
2021/03/03 02:53:41;;;;;;;1999.90;999.90;;;;;;;4.51;78.20;99631.22;5007440;28;20108;-66
2021/03/03 02:56:08;;;;;;;1999.90;999.90;;;;;;;4.49;78.15;99632.56;5003287;28;20058;-66
2021/03/03 02:58:34;;;;;;;1999.90;999.90;;;;;;;4.59;77.87;99635.44;5002859;28;20525;-66
2021/03/03 03:01:02;;;;;;;1999.90;999.90;;;;;;;4.60;77.54;99631.63;5008174;28;20049;-66
2021/03/03 03:03:49;;;;;;;1999.90;999.90;;;;;;;4.71;77.07;99625.16;5001927;28;20486;-66
2021/03/03 03:06:23;;;;;;;1999.90;999.90;;;;;;;4.35;78.22;99629.38;4994520;28;20104;-66
2021/03/03 03:08:52;;;;;;;1999.90;999.90;;;;;;;4.49;78.31;99636.13;4996174;28;20065;-66
2021/03/03 03:11:26;;;;;;;1999.90;999.90;;;;;;;4.81;77.01;99627.22;5005364;28;20050;-66
2021/03/03 03:13:58;;;;;;;1999.90;999.90;;;;;;;4.91;76.82;99634.69;5003971;28;20046;-66
2021/03/03 03:16:24;;;;;;;1999.90;999.90;;;;;;;4.92;76.43;99631.69;5010498;28;20046;-66
2021/03/03 03:18:55;;;;;;;1999.90;999.90;;;;;;;4.97;76.11;99633.66;5008406;28;20038;-66
2021/03/03 03:21:25;;;;;;;1999.90;999.90;;;;;;;4.87;76.27;99628.91;5004778;28;20054;-66
2021/03/03 03:23:51;;;;;;;1999.90;999.90;;;;;;;4.80;76.50;99628.28;5002190;28;20053;-66
2021/03/03 03:26:19;;;;;;;1999.90;999.90;;;;;;;4.81;76.48;99626.38;5002954;28;20049;-66
2021/03/03 03:28:45;;;;;;;1999.90;999.90;;;;;;;4.75;76.52;99623.56;5005618;28;20037;-66
2021/03/03 03:31:11;;;;;;;1999.90;999.90;;;;;;;4.53;76.80;99626.31;5000738;28;20041;-66
2021/03/03 03:33:38;;;;;;;1999.90;999.90;;;;;;;4.46;77.56;99622.94;5006182;28;20050;-66
2021/03/03 03:36:05;;;;;;;1999.90;999.90;;;;;;;4.57;76.93;99619.25;4998108;28;20058;-66
2021/03/03 03:38:33;;;;;;;1999.90;999.90;;;;;;;4.54;77.04;99619.75;5007106;28;20049;-66
2021/03/03 03:41:04;;;;;;;1999.90;999.90;;;;;;;4.29;77.89;99622.16;4987008;28;20053;-66
2021/03/03 03:43:32;;;;;;;1999.90;999.90;;;;;;;4.27;78.39;99624.31;5002594;28;20050;-66
2021/03/03 03:46:01;;;;;;;1999.90;999.90;;;;;;;4.40;78.08;99629.44;5000182;28;20461;-66
2021/03/03 03:48:29;;;;;;;1999.90;999.90;;;;;;;4.30;77.88;99623.81;5003720;28;20050;-66
2021/03/03 03:50:55;;;;;;;1999.90;999.90;;;;;;;4.25;77.97;99626.50;5002526;28;20077;-66
2021/03/03 03:53:22;;;;;;;1999.90;999.90;;;;;;;4.29;77.76;99616.69;5004820;28;20120;-66
2021/03/03 03:55:48;;;;;;;1999.90;999.90;;;;;;;4.30;77.42;99621.94;5001719;28;20062;-66
2021/03/03 03:58:14;;;;;;;1999.90;999.90;;;;;;;4.10;78.48;99619.72;5004915;28;20395;-66
2021/03/03 04:00:40;;;;;;;1999.90;999.90;;;;;;;4.15;77.74;99617.03;5007126;28;20093;-66
2021/03/03 04:03:07;;;;;;;1999.90;999.90;;;;;;;4.17;77.88;99616.81;5000987;28;20053;-66
2021/03/03 04:05:34;;;;;;;1999.90;999.90;;;;;;;4.19;77.67;99618.19;5002407;28;20050;-66
2021/03/03 04:08:00;;;;;;;1999.90;999.90;;;;;;;4.23;77.99;99616.63;5003130;28;20555;-66
2021/03/03 04:10:29;;;;;;;1999.90;999.90;;;;;;;4.33;77.48;99623.31;4999022;28;20200;-66
2021/03/03 04:12:56;;;;;;;1999.90;999.90;;;;;;;4.31;77.67;99611.78;4999052;28;20054;-66
2021/03/03 04:15:24;;;;;;;1999.90;999.90;;;;;;;4.30;77.34;99612.88;5002407;28;20100;-66
2021/03/03 04:17:52;;;;;;;1999.90;999.90;;;;;;;4.21;77.60;99612.47;4995881;28;20061;-66
2021/03/03 04:20:19;;;;;;;1999.90;999.90;;;;;;;4.09;77.67;99609.84;5003560;28;20357;-66
2021/03/03 04:22:45;;;;;;;1999.90;999.90;;;;;;;3.96;78.36;99604.72;5003707;28;20049;-66
2021/03/03 04:25:13;;;;;;;1999.90;999.90;;;;;;;3.99;78.10;99606.94;5003998;28;20058;-66
2021/03/03 04:27:40;;;;;;;1999.90;999.90;;;;;;;4.17;76.70;99603.94;5006568;28;20092;-66
2021/03/03 04:30:15;;;;;;;1999.90;999.90;;;;;;;4.07;76.62;99606.53;4998884;28;20038;-66
2021/03/03 04:32:45;;;;;;;1999.90;999.90;;;;;;;4.08;76.73;99599.16;4993393;28;20046;-66
2021/03/03 04:35:12;;;;;;;1999.90;999.90;;;;;;;4.06;76.94;99599.41;5003362;28;20298;-66
2021/03/03 04:37:38;;;;;;;1999.90;999.90;;;;;;;3.98;77.58;99603.41;4999747;28;20050;-66
2021/03/03 04:40:07;;;;;;;1999.90;999.90;;;;;;;3.90;77.88;99592.91;5004744;28;20485;-66
2021/03/03 04:42:33;;;;;;;1999.90;999.90;;;;;;;4.09;77.44;99596.16;5004244;28;20050;-66
2021/03/03 04:45:00;;;;;;;1999.90;999.90;;;;;;;4.13;77.16;99591.84;5003628;28;20041;-66
2021/03/03 04:47:26;;;;;;;1999.90;999.90;;;;;;;3.96;77.77;99596.50;5004250;28;20050;-66
2021/03/03 04:49:52;;;;;;;1999.90;999.90;;;;;;;3.83;77.59;99587.59;5001268;28;20501;-66
2021/03/03 04:52:19;;;;;;;1999.90;999.90;;;;;;;3.72;77.94;99590.41;5002888;28;20049;-66
2021/03/03 04:54:45;;;;;;;1999.90;999.90;;;;;;;3.57;78.34;99600.03;5003249;28;20104;-66
2021/03/03 04:57:11;;;;;;;1999.90;999.90;;;;;;;3.64;79.00;99599.88;5005606;28;20296;-66
2021/03/03 04:59:37;;;;;;;1999.90;999.90;;;;;;;3.72;78.84;99588.50;5008771;28;20052;-66
2021/03/03 05:02:03;;;;;;;1999.90;999.90;;;;;;;3.52;79.60;99586.28;5001395;28;20464;-66
2021/03/03 05:04:30;;;;;;;1999.90;999.90;;;;;;;3.67;79.31;99585.69;5004485;28;20053;-66
2021/03/03 05:06:56;;;;;;;1999.90;999.90;;;;;;;3.69;79.07;99586.25;5002138;28;20327;-66
2021/03/03 05:09:22;;;;;;;1999.90;999.90;;;;;;;3.83;78.80;99582.13;4984120;28;20661;-66
2021/03/03 05:11:48;;;;;;;1999.90;999.90;;;;;;;3.91;78.38;99586.31;5001734;28;20136;-66
2021/03/03 05:14:14;;;;;;;1999.90;999.90;;;;;;;3.77;78.39;99576.84;5013065;28;20069;-66
2021/03/03 05:16:41;;;;;;;1999.90;999.90;;;;;;;3.63;78.87;99576.31;5001300;28;20524;-66
2021/03/03 05:19:08;;;;;;;1999.90;999.90;;;;;;;3.43;80.21;99576.84;4998020;28;20233;-66
2021/03/03 05:21:35;;;;;;;1999.90;999.90;;;;;;;3.79;79.16;99574.66;5001058;28;20104;-66
2021/03/03 05:24:01;;;;;;;1999.90;999.90;;;;;;;3.72;79.35;99574.81;4999951;28;20066;-66
2021/03/03 05:26:27;;;;;;;1999.90;999.90;;;;;;;3.78;78.50;99570.25;4998901;28;20470;-66
2021/03/03 05:28:53;;;;;;;1999.90;999.90;;;;;;;3.74;79.58;99575.41;5015968;28;20245;-66
2021/03/03 05:31:24;;;;;;;1999.90;999.90;;;;;;;3.83;79.00;99568.44;5002837;28;20490;-66
2021/03/03 05:33:58;;;;;;;1999.90;999.90;;;;;;;3.91;78.62;99577.28;5001433;28;20413;-66
2021/03/03 05:36:24;;;;;;;1999.90;999.90;;;;;;;3.74;78.98;99567.22;5004639;28;20054;-66
2021/03/03 05:38:50;;;;;;;1999.90;999.90;;;;;;;3.79;79.35;99580.94;5002588;28;20066;-66
2021/03/03 05:41:16;;;;;;;1999.90;999.90;;;;;;;3.73;79.28;99573.75;4998845;28;20484;-66
2021/03/03 05:43:42;;;;;;;1999.90;999.90;;;;;;;3.64;79.99;99567.06;5005260;28;20066;-66
2021/03/03 05:46:08;;;;;;;1999.90;999.90;;;;;;;3.71;80.19;99573.19;4997335;28;20053;-67
2021/03/03 05:48:43;;;;;;;1999.90;999.90;;;;;;;3.76;79.64;99575.97;5002360;28;20057;-66
2021/03/03 05:51:10;;;;;;;1999.90;999.90;;;;;;;4.05;79.11;99578.59;5003090;28;20054;-66
2021/03/03 05:53:37;;;;;;;1999.90;999.90;;;;;;;3.82;79.47;99569.50;5001215;28;20530;-66
2021/03/03 05:56:06;;;;;;;1999.90;999.90;;;;;;;3.69;80.25;99564.38;4997607;28;20500;-66
2021/03/03 05:58:35;;;;;;;1999.90;999.90;;;;;;;3.93;80.09;99564.16;5001780;28;20497;-66
2021/03/03 06:01:03;;;;;;;1999.90;999.90;;;;;;;4.07;79.56;99570.94;5000562;28;20053;-66
2021/03/03 06:03:30;;;;;;;1999.90;999.90;;;;;;;4.09;79.33;99562.47;5016370;28;20062;-66
2021/03/03 06:05:56;;;;;;;1999.90;999.90;;;;;;;3.94;79.79;99561.19;5002533;28;20517;-66
2021/03/03 06:08:27;;;;;;;1999.90;999.90;;;;;;;3.98;80.15;99556.88;5002384;28;20057;-66
2021/03/03 06:10:54;;;;;;;1999.90;999.90;;;;;;;4.13;79.56;99558.16;4998526;28;20406;-66
2021/03/03 06:13:21;;;;;;;1999.90;999.90;;;;;;;4.12;79.84;99562.78;4998951;28;20053;-66
2021/03/03 06:15:48;;;;;;;1999.90;999.90;;;;;;;4.09;79.96;99560.56;5000478;28;20058;-66
2021/03/03 06:18:16;;;;;;;1999.90;999.90;;;;;;;4.13;79.68;99558.97;5004188;28;20625;-66
2021/03/03 06:20:47;;;;;;;1999.90;999.90;;;;;;;4.30;79.52;99558.09;5005239;28;20058;-66
2021/03/03 06:23:24;;;;;;;1999.90;999.90;;;;;;;4.40;79.14;99547.25;5002862;28;20049;-66
2021/03/03 06:25:56;;;;;;;1999.90;999.90;;;;;;;4.69;78.38;99549.78;4986176;28;20112;-66
2021/03/03 06:28:39;;;;;;;1999.90;999.90;;;;;;;4.63;79.00;99548.91;4983834;28;20050;-66
2021/03/03 06:31:30;;;;;;;1999.90;999.90;;;;;;;4.63;78.86;99539.84;4983792;28;20055;-66
2021/03/03 06:34:12;;;;;;;1999.90;999.90;;;;;;;4.75;78.54;99551.50;4984759;28;20054;-66
2021/03/03 06:36:40;;;;;;;1999.90;999.90;;;;;;;4.59;78.80;99539.53;4973599;28;20046;-66
2021/03/03 06:39:19;;;;;;;1999.90;999.90;;;;;;;4.85;78.60;99537.88;4986394;28;20080;-66
2021/03/03 06:41:47;;;;;;;1999.90;999.90;;;;;;;4.94;78.63;99547.31;4983461;28;20120;-66
2021/03/03 06:44:13;;;;;;;1999.90;999.90;;;;;;;4.78;79.02;99545.50;4999835;28;20136;-66
2021/03/03 06:46:39;;;;;;;1999.90;999.90;;;;;;;4.63;79.97;99542.59;4986335;28;20553;-66
2021/03/03 06:49:20;;;;;;;1999.90;999.90;;;;;;;4.94;79.05;99536.34;4986332;28;20053;-66
2021/03/03 06:51:47;;;;;;;1999.90;999.90;;;;;;;5.10;79.33;99534.53;4980019;28;20053;-66
2021/03/03 06:54:19;;;;;;;1999.90;999.90;;;;;;;5.22;78.83;99534.38;4982532;28;20058;-67
2021/03/03 06:56:46;;;;;;;;;;;;;;;5.34;78.43;99539.69;4985124;28;20128;-66
2021/03/03 06:59:15;;;;;;;1999.90;999.90;;;;;;;5.68;77.66;99533.09;4984852;28;20285;-66
2021/03/03 07:01:52;;;;;;;1999.90;999.90;;;;;;;6.04;76.11;99530.56;4983724;28;20050;-67
2021/03/03 07:04:23;;;;;;;1999.90;999.90;;;;;;;5.89;76.26;99528.53;4984469;28;20141;-66
2021/03/03 07:06:51;;;;;;;1999.90;999.90;;;;;;;5.90;76.45;99531.00;4981845;28;20058;-66
2021/03/03 07:09:18;;;;;;;1999.90;999.90;;;;;;;6.07;76.01;99524.53;4978808;28;20363;-66
2021/03/03 07:11:44;;;;;;;1999.90;999.90;;;;;;;6.24;75.51;99527.91;4983384;28;20101;-66
2021/03/03 07:14:20;;;;;;;1999.90;999.90;;;;;;;6.32;74.56;99532.88;4984959;28;20108;-66
2021/03/03 07:17:18;;;;;;;1999.90;999.90;;;;;;;6.25;75.19;99524.09;4980642;28;20061;-66
2021/03/03 07:19:52;;;;;;;1999.90;999.90;;;;;;;6.54;74.59;99526.38;4984962;28;20149;-66
2021/03/03 07:22:39;;;;;;;1999.90;999.90;;;;;;;6.82;73.68;99518.75;4980401;28;20439;-67
2021/03/03 07:25:14;;;;;;;1999.90;999.90;;;;;;;6.95;73.82;99522.88;4999487;28;20347;-66
2021/03/03 07:27:42;;;;;;;1999.90;999.90;;;;;;;7.12;73.08;99517.13;5001287;28;20046;-67
2021/03/03 07:30:10;;;;;;;1999.90;999.90;;;;;;;7.30;72.40;99519.31;5001270;28;20124;-66
2021/03/03 07:32:37;;;;;;;1999.90;999.90;;;;;;;7.21;72.80;99515.47;5003649;28;20065;-66
2021/03/03 07:35:22;;;;;;;1999.90;999.90;;;;;;;7.32;72.54;99522.63;4999876;28;20049;-66
2021/03/03 07:37:55;;;;;;;1999.90;999.90;;;;;;;7.50;72.12;99517.66;5004033;28;20104;-66
2021/03/03 07:40:30;;;;;;;1999.90;999.90;;;;;;;7.60;72.03;99520.41;4997897;28;20409;-66
2021/03/03 07:43:00;;;;;;;1999.90;999.90;;;;;;;7.60;72.01;99527.84;5003912;28;20099;-67
2021/03/03 07:45:41;;;;;;;1999.90;999.90;;;;;;;7.75;71.66;99523.13;5004055;28;20054;-67
2021/03/03 07:48:10;;;;;;;1999.90;999.90;;;;;;;7.66;71.25;99516.53;4998535;28;20509;-66
2021/03/03 07:50:37;;;;;;;1999.90;999.90;;;;;;;7.69;71.66;99517.91;4998400;28;20141;-66
2021/03/03 07:53:03;;;;;;;1999.90;999.90;;;;;;;8.00;70.64;99512.34;5002723;28;20172;-66
2021/03/03 07:55:29;;;;;;;1999.90;999.90;;;;;;;8.24;69.70;99518.84;5004629;28;20054;-66
2021/03/03 07:57:59;;;;;;;1999.90;999.90;;;;;;;8.34;69.13;99520.75;5003822;28;20476;-66
2021/03/03 08:00:27;;;;;;;1999.90;999.90;;;;;;;8.78;68.87;99514.47;5002950;28;20367;-66
2021/03/03 08:02:56;;;;;;;1999.90;999.90;;;;;;;9.11;67.46;99512.03;5000338;28;20402;-66
2021/03/03 08:05:40;;;;;;;1999.90;999.90;;;;;;;9.28;66.82;99511.63;5002865;28;20058;-66
2021/03/03 08:08:33;;;;;;;1999.90;999.90;;;;;;;9.42;66.45;99511.75;4978666;28;20112;-66
2021/03/03 08:11:00;;;;;;;1999.90;999.90;;;;;;;9.50;65.63;99513.91;5002195;28;20061;-66
2021/03/03 08:13:38;;;;;;;1999.90;999.90;;;;;;;9.89;64.18;99501.09;5001865;28;20054;-67
2021/03/03 08:16:05;;;;;;;1999.90;999.90;;;;;;;10.07;62.96;99499.50;4998200;28;20104;-67
2021/03/03 08:18:33;;;;;;;1999.90;999.90;;;;;;;10.25;62.78;99495.16;5003295;28;20046;-67
2021/03/03 08:21:07;;;;;;;1999.90;999.90;;;;;;;10.62;60.90;99499.13;5002806;28;20049;-67
2021/03/03 08:23:37;;;;;;;1999.90;999.90;;;;;;;10.76;60.03;99490.88;5001126;28;20366;-67
2021/03/03 08:26:16;;;;;;;1999.90;999.90;;;;;;;11.18;58.69;99496.63;4997869;28;20092;-67
2021/03/03 08:28:52;;;;;;;1999.90;999.90;;;;;;;10.75;58.63;99495.59;4998187;28;20056;-67
2021/03/03 08:31:25;;;;;;;1999.90;999.90;;;;;;;10.97;58.68;99490.59;5000641;28;20061;-67
2021/03/03 08:33:52;;;;;;;1999.90;999.90;;;;;;;11.20;58.56;99497.97;4999272;28;20050;-67
2021/03/03 08:36:25;;;;;;;1999.90;999.90;;;;;;;11.33;57.49;99495.53;4997467;28;20049;-67
2021/03/03 08:38:53;;;;;;;1999.90;999.90;;;;;;;11.43;56.94;99498.13;5000092;28;20045;-67
2021/03/03 08:41:22;;;;;;;1999.90;999.90;;;;;;;11.59;56.11;99490.38;4995772;28;20053;-67
2021/03/03 08:43:59;;;;;;;1999.90;999.90;;;;;;;11.27;56.69;99492.88;5003671;28;20049;-67
2021/03/03 08:46:25;;;;;;;1999.90;999.90;;;;;;;11.57;56.63;99489.88;4992840;28;20054;-67
2021/03/03 08:48:57;;;;;;;1999.90;999.90;;;;;;;12.50;54.81;99488.88;5002691;28;20129;-67
2021/03/03 08:51:28;;;;;;;1999.90;999.90;;;;;;;12.58;53.36;99482.63;5000714;28;20112;-67
2021/03/03 08:53:56;;;;;;;1999.90;999.90;;;;;;;12.74;53.48;99487.81;5001764;28;20058;-67
2021/03/03 08:56:32;;;;;;;1999.90;999.90;;;;;;;13.06;52.06;99483.19;4991918;28;20058;-67
2021/03/03 08:59:11;;;;;;;1999.90;999.90;;;;;;;13.33;50.70;99485.00;5001695;28;20669;-67
2021/03/03 09:01:54;;;;;;;1999.90;999.90;;;;;;;13.52;50.19;99487.63;4999309;28;20379;-66
2021/03/03 09:04:41;;;;;;;1999.90;999.90;;;;;;;13.63;50.04;99486.19;5004752;28;20070;-66
2021/03/03 09:07:13;;;;;;;1999.90;999.90;;;;;;;13.71;49.26;99479.88;5005065;28;20445;-66
2021/03/03 09:09:49;;;;;;;1999.90;999.90;;;;;;;13.70;48.45;99488.53;5002791;28;20050;-67
2021/03/03 09:12:23;;;;;;;1999.90;999.90;;;;;;;13.38;48.41;99482.13;5004850;28;20454;-67
2021/03/03 09:14:52;;;;;;;1999.90;999.90;;;;;;;12.95;49.11;99477.03;5006227;28;20301;-66
2021/03/03 09:17:27;;;;;;;1999.90;999.90;;;;;;;13.28;50.48;99480.41;4999776;28;20104;-66
2021/03/03 09:19:55;;;;;;;1999.90;999.90;;;;;;;14.00;47.82;99481.31;5001263;28;20143;-66
2021/03/03 09:22:26;;;;;;;1999.90;999.90;;;;;;;13.97;46.23;99473.59;5003287;28;20623;-66
2021/03/03 09:24:54;;;;;;;1999.90;999.90;;;;;;;14.16;46.23;99478.13;5002513;28;20062;-66
2021/03/03 09:27:22;;;;;;;1999.90;999.90;;;;;;;14.38;47.05;99475.22;5020625;28;20050;-66
2021/03/03 09:29:49;;;;;;;1999.90;999.90;;;;;;;14.86;44.68;99475.47;4996235;28;20108;-66
2021/03/03 09:32:20;;;;;;;1999.90;999.90;;;;;;;14.72;45.12;99470.88;5005107;28;20507;-66
2021/03/03 09:34:52;;;;;;;1999.90;999.90;;;;;;;15.28;44.04;99482.16;5006080;28;20390;-66
2021/03/03 09:37:19;;;;;;;1999.90;999.90;;;;;;;15.26;43.58;99473.31;5006532;28;20318;-66
2021/03/03 09:39:58;;;;;;;1999.90;999.90;;;;;;;15.84;42.92;99473.06;5003659;28;20050;-66
2021/03/03 09:42:26;;;;;;;1999.90;999.90;;;;;;;15.59;42.11;99471.97;5005865;28;20108;-66
2021/03/03 09:44:55;;;;;;;1999.90;999.90;;;;;;;15.14;42.08;99471.22;5016393;28;20274;-66
2021/03/03 09:47:25;;;;;;;1999.90;999.90;;;;;;;15.13;43.83;99469.56;5005847;28;20050;-66
2021/03/03 09:49:58;;;;;;;1999.90;999.90;;;;;;;16.06;42.65;99463.59;5005081;28;20053;-66
2021/03/03 09:52:46;;;;;;;1999.90;999.90;;;;;;;15.96;41.90;99464.00;5006174;28;20501;-66
2021/03/03 09:55:14;;;;;;;1999.90;999.90;;;;;;;16.29;42.59;99458.56;5001412;28;20128;-66
2021/03/03 09:57:42;;;;;;;1999.90;999.90;;;;;;;16.72;40.78;99459.44;5005555;28;20065;-66
2021/03/03 10:00:11;;;;;;;1999.90;999.90;;;;;;;16.40;39.75;99453.41;5006347;28;20046;-66
2021/03/03 10:02:45;;;;;;;1999.90;999.90;;;;;;;16.61;40.51;99449.81;5007219;28;20073;-66
2021/03/03 10:05:24;;;;;;;1999.90;999.90;;;;;;;17.30;38.62;99458.78;5004434;28;20050;-66
2021/03/03 10:07:55;;;;;;;1999.90;999.90;;;;;;;17.31;38.81;99452.03;5006445;28;20057;-66
2021/03/03 10:10:23;;;;;;;1999.90;999.90;;;;;;;17.26;36.27;99453.06;4999920;28;20323;-66
2021/03/03 10:12:49;;;;;;;1999.90;999.90;;;;;;;17.21;37.21;99442.94;5005960;28;20674;-66
2021/03/03 10:15:19;;;;;;;1999.90;999.90;;;;;;;17.13;37.66;99443.81;5005094;28;20120;-66
2021/03/03 10:17:51;;;;;;;1999.90;999.90;;;;;;;17.78;35.52;99443.31;5005315;28;20386;-66
2021/03/03 10:20:43;;;;;;;1999.90;999.90;;;;;;;16.89;35.17;99436.16;5007058;28;20056;-66
2021/03/03 10:23:13;;;;;;;1999.90;999.90;;;;;;;17.05;35.67;99439.16;4999984;28;20049;-66
2021/03/03 10:25:51;;;;;;;1999.90;999.90;;;;;;;17.88;35.18;99428.03;5003604;28;20062;-66
2021/03/03 10:28:27;;;;;;;1999.90;999.90;;;;;;;17.56;35.19;99434.16;5007593;28;20133;-66
2021/03/03 10:30:55;;;;;;;1999.90;999.90;;;;;;;17.78;34.86;99432.91;5001953;28;20520;-66
2021/03/03 10:33:24;;;;;;;1999.90;999.90;;;;;;;18.35;34.50;99426.78;5006128;28;20139;-66
2021/03/03 10:35:52;;;;;;;1999.90;999.90;;;;;;;18.35;31.68;99419.19;5001674;28;20056;-66
2021/03/03 10:38:20;;;;;;;1999.90;999.90;;;;;;;17.85;34.32;99420.34;5002333;28;20135;-66
2021/03/03 10:40:47;;;;;;;1999.90;999.90;;;;;;;18.12;34.24;99419.69;5005036;28;20204;-66
2021/03/03 10:43:19;;;;;;;1999.90;999.90;;;;;;;18.20;33.46;99415.13;5006159;28;20057;-66
2021/03/03 10:45:47;;;;;;;1999.90;999.90;;;;;;;17.97;34.11;99405.56;5005263;28;20104;-66
2021/03/03 10:48:27;;;;;;;1999.90;999.90;;;;;;;18.57;33.23;99395.47;5005196;28;20045;-66
2021/03/03 10:50:53;;;;;;;1999.90;999.90;;;;;;;19.08;31.37;99388.53;5003071;28;20050;-66
2021/03/03 10:53:20;;;;;;;1999.90;999.90;;;;;;;18.96;31.99;99386.59;5003153;28;20116;-66
2021/03/03 10:55:46;;;;;;;1999.90;999.90;;;;;;;18.61;33.43;99390.78;5006329;28;20472;-66
2021/03/03 10:58:15;;;;;;;1999.90;999.90;;;;;;;18.55;33.03;99382.97;5001339;28;20056;-66
2021/03/03 11:00:58;;;;;;;1999.90;999.90;;;;;;;18.33;32.88;99378.72;4998635;28;20505;-66
2021/03/03 11:03:25;;;;;;;1999.90;999.90;;;;;;;18.45;32.74;99373.91;5004178;28;20075;-66
2021/03/03 11:05:56;;;;;;;1999.90;999.90;;;;;;;18.81;32.92;99371.34;5009188;28;20529;-66
2021/03/03 11:08:24;;;;;;;1999.90;999.90;;;;;;;19.31;32.18;99367.16;4998317;28;20447;-66
2021/03/03 11:10:52;;;;;;;1999.90;999.90;;;;;;;19.07;32.78;99372.88;5005299;28;20119;-66